sensor_id;sensor_type;location;lat;lon;timestamp;P1;durP1;ratioP1;P2;durP2;ratioP2
3341;SDS011;1684;50.748;6.154;2023-12-20T00:02:21;2.20;;;0.40;;
3341;SDS011;1684;50.748;6.154;2023-12-20T00:04:49;2.20;;;0.30;;
3341;SDS011;1684;50.748;6.154;2023-12-20T00:07:19;2.20;;;0.40;;
3341;SDS011;1684;50.748;6.154;2023-12-20T00:09:48;2.20;;;0.40;;
3341;SDS011;1684;50.748;6.154;2023-12-20T00:12:16;2.20;;;0.40;;
3341;SDS011;1684;50.748;6.154;2023-12-20T00:14:44;2.20;;;0.40;;
3341;SDS011;1684;50.748;6.154;2023-12-20T00:17:13;2.20;;;0.40;;
3341;SDS011;1684;50.748;6.154;2023-12-20T00:19:41;8.73;;;4.33;;
3341;SDS011;1684;50.748;6.154;2023-12-20T00:22:09;4.40;;;2.10;;
3341;SDS011;1684;50.748;6.154;2023-12-20T00:24:39;5.50;;;2.60;;
3341;SDS011;1684;50.748;6.154;2023-12-20T00:27:07;4.77;;;1.80;;
3341;SDS011;1684;50.748;6.154;2023-12-20T00:29:36;5.63;;;2.37;;
3341;SDS011;1684;50.748;6.154;2023-12-20T00:32:05;2.20;;;0.40;;
3341;SDS011;1684;50.748;6.154;2023-12-20T00:34:34;2.20;;;0.40;;
3341;SDS011;1684;50.748;6.154;2023-12-20T00:37:02;2.20;;;0.40;;
3341;SDS011;1684;50.748;6.154;2023-12-20T00:39:31;2.20;;;0.40;;
3341;SDS011;1684;50.748;6.154;2023-12-20T00:42:01;2.20;;;0.37;;
3341;SDS011;1684;50.748;6.154;2023-12-20T00:44:29;2.20;;;0.40;;
3341;SDS011;1684;50.748;6.154;2023-12-20T00:46:58;2.20;;;0.40;;
3341;SDS011;1684;50.748;6.154;2023-12-20T00:49:26;2.20;;;0.40;;
3341;SDS011;1684;50.748;6.154;2023-12-20T00:51:55;2.20;;;0.40;;
3341;SDS011;1684;50.748;6.154;2023-12-20T00:54:23;2.20;;;0.40;;
3341;SDS011;1684;50.748;6.154;2023-12-20T00:56:51;2.20;;;0.40;;
3341;SDS011;1684;50.748;6.154;2023-12-20T00:59:21;2.20;;;0.30;;
3341;SDS011;1684;50.748;6.154;2023-12-20T01:01:50;2.20;;;0.37;;
3341;SDS011;1684;50.748;6.154;2023-12-20T01:04:19;2.20;;;0.40;;
3341;SDS011;1684;50.748;6.154;2023-12-20T01:06:48;2.20;;;0.40;;
3341;SDS011;1684;50.748;6.154;2023-12-20T01:09:16;2.20;;;0.40;;
3341;SDS011;1684;50.748;6.154;2023-12-20T01:11:44;2.20;;;0.40;;
3341;SDS011;1684;50.748;6.154;2023-12-20T01:14:13;2.20;;;0.40;;
3341;SDS011;1684;50.748;6.154;2023-12-20T01:16:42;2.50;;;1.23;;
3341;SDS011;1684;50.748;6.154;2023-12-20T01:19:11;2.20;;;0.40;;
3341;SDS011;1684;50.748;6.154;2023-12-20T01:21:40;2.20;;;0.37;;
3341;SDS011;1684;50.748;6.154;2023-12-20T01:24:08;2.20;;;0.40;;
3341;SDS011;1684;50.748;6.154;2023-12-20T01:26:37;2.20;;;0.40;;
3341;SDS011;1684;50.748;6.154;2023-12-20T01:29:05;2.20;;;0.40;;
3341;SDS011;1684;50.748;6.154;2023-12-20T01:31:33;2.20;;;0.40;;
3341;SDS011;1684;50.748;6.154;2023-12-20T01:34:03;2.20;;;0.40;;
3341;SDS011;1684;50.748;6.154;2023-12-20T01:36:31;2.20;;;0.40;;
3341;SDS011;1684;50.748;6.154;2023-12-20T01:38:59;2.20;;;0.40;;
3341;SDS011;1684;50.748;6.154;2023-12-20T01:41:31;2.20;;;0.40;;
3341;SDS011;1684;50.748;6.154;2023-12-20T01:43:59;2.20;;;0.40;;
3341;SDS011;1684;50.748;6.154;2023-12-20T01:46:28;2.20;;;0.40;;
3341;SDS011;1684;50.748;6.154;2023-12-20T01:48:56;2.20;;;0.40;;
3341;SDS011;1684;50.748;6.154;2023-12-20T01:51:26;2.20;;;0.40;;
3341;SDS011;1684;50.748;6.154;2023-12-20T01:53:55;2.20;;;0.40;;
3341;SDS011;1684;50.748;6.154;2023-12-20T01:56:26;2.20;;;0.40;;
3341;SDS011;1684;50.748;6.154;2023-12-20T01:58:56;2.20;;;0.40;;
3341;SDS011;1684;50.748;6.154;2023-12-20T02:01:25;2.20;;;0.40;;
3341;SDS011;1684;50.748;6.154;2023-12-20T02:03:54;2.20;;;0.40;;
3341;SDS011;1684;50.748;6.154;2023-12-20T02:06:23;2.20;;;0.40;;
3341;SDS011;1684;50.748;6.154;2023-12-20T02:08:54;2.20;;;0.40;;
3341;SDS011;1684;50.748;6.154;2023-12-20T02:11:22;2.20;;;0.40;;
3341;SDS011;1684;50.748;6.154;2023-12-20T02:13:51;16.83;;;6.63;;
3341;SDS011;1684;50.748;6.154;2023-12-20T02:16:19;24.73;;;7.57;;
3341;SDS011;1684;50.748;6.154;2023-12-20T02:18:48;7.40;;;5.27;;
3341;SDS011;1684;50.748;6.154;2023-12-20T02:21:17;12.30;;;6.00;;
3341;SDS011;1684;50.748;6.154;2023-12-20T02:23:46;13.10;;;7.23;;
3341;SDS011;1684;50.748;6.154;2023-12-20T02:26:15;8.90;;;5.93;;
3341;SDS011;1684;50.748;6.154;2023-12-20T02:28:44;13.87;;;7.13;;
3341;SDS011;1684;50.748;6.154;2023-12-20T02:31:14;10.77;;;6.70;;
3341;SDS011;1684;50.748;6.154;2023-12-20T02:33:42;17.93;;;7.00;;
3341;SDS011;1684;50.748;6.154;2023-12-20T02:36:10;18.53;;;8.63;;
3341;SDS011;1684;50.748;6.154;2023-12-20T02:38:39;12.33;;;5.80;;
3341;SDS011;1684;50.748;6.154;2023-12-20T02:41:08;13.40;;;8.00;;
3341;SDS011;1684;50.748;6.154;2023-12-20T02:43:37;14.73;;;8.27;;
3341;SDS011;1684;50.748;6.154;2023-12-20T02:46:05;16.80;;;6.67;;
3341;SDS011;1684;50.748;6.154;2023-12-20T02:48:33;13.17;;;5.70;;
3341;SDS011;1684;50.748;6.154;2023-12-20T02:51:02;11.60;;;6.87;;
3341;SDS011;1684;50.748;6.154;2023-12-20T02:53:30;15.07;;;7.17;;
3341;SDS011;1684;50.748;6.154;2023-12-20T02:55:58;12.10;;;7.40;;
3341;SDS011;1684;50.748;6.154;2023-12-20T02:58:28;9.10;;;3.30;;
3341;SDS011;1684;50.748;6.154;2023-12-20T03:00:57;12.73;;;7.17;;
3341;SDS011;1684;50.748;6.154;2023-12-20T03:03:26;23.00;;;8.53;;
3341;SDS011;1684;50.748;6.154;2023-12-20T03:05:54;16.53;;;7.93;;
3341;SDS011;1684;50.748;6.154;2023-12-20T03:08:22;10.30;;;5.77;;
3341;SDS011;1684;50.748;6.154;2023-12-20T03:10:54;9.70;;;5.90;;
3341;SDS011;1684;50.748;6.154;2023-12-20T03:13:22;16.17;;;8.17;;
3341;SDS011;1684;50.748;6.154;2023-12-20T03:15:52;15.40;;;7.23;;
3341;SDS011;1684;50.748;6.154;2023-12-20T03:18:21;20.13;;;6.47;;
3341;SDS011;1684;50.748;6.154;2023-12-20T03:20:49;13.13;;;7.07;;
3341;SDS011;1684;50.748;6.154;2023-12-20T03:23:17;15.53;;;6.20;;
3341;SDS011;1684;50.748;6.154;2023-12-20T03:25:45;14.70;;;7.03;;
3341;SDS011;1684;50.748;6.154;2023-12-20T03:28:14;10.73;;;5.87;;
3341;SDS011;1684;50.748;6.154;2023-12-20T03:30:42;15.57;;;7.13;;
3341;SDS011;1684;50.748;6.154;2023-12-20T03:33:12;15.40;;;6.50;;
3341;SDS011;1684;50.748;6.154;2023-12-20T03:35:40;13.10;;;7.00;;
3341;SDS011;1684;50.748;6.154;2023-12-20T03:38:09;9.43;;;6.17;;
3341;SDS011;1684;50.748;6.154;2023-12-20T03:40:37;16.50;;;6.13;;
3341;SDS011;1684;50.748;6.154;2023-12-20T03:43:05;17.00;;;7.30;;
3341;SDS011;1684;50.748;6.154;2023-12-20T03:45:34;14.73;;;8.00;;
3341;SDS011;1684;50.748;6.154;2023-12-20T03:48:02;22.80;;;7.40;;
3341;SDS011;1684;50.748;6.154;2023-12-20T03:50:32;13.37;;;6.10;;
3341;SDS011;1684;50.748;6.154;2023-12-20T03:53:00;18.97;;;8.07;;
3341;SDS011;1684;50.748;6.154;2023-12-20T03:55:30;19.20;;;7.73;;
3341;SDS011;1684;50.748;6.154;2023-12-20T03:57:58;17.67;;;7.80;;
3341;SDS011;1684;50.748;6.154;2023-12-20T04:00:26;17.03;;;8.27;;
3341;SDS011;1684;50.748;6.154;2023-12-20T04:02:55;13.07;;;6.43;;
3341;SDS011;1684;50.748;6.154;2023-12-20T04:05:23;21.70;;;6.23;;
3341;SDS011;1684;50.748;6.154;2023-12-20T04:07:53;19.90;;;9.47;;
3341;SDS011;1684;50.748;6.154;2023-12-20T04:10:21;16.50;;;7.57;;
3341;SDS011;1684;50.748;6.154;2023-12-20T04:12:49;16.63;;;7.30;;
3341;SDS011;1684;50.748;6.154;2023-12-20T04:15:18;12.43;;;6.50;;
3341;SDS011;1684;50.748;6.154;2023-12-20T04:17:46;16.40;;;6.50;;
3341;SDS011;1684;50.748;6.154;2023-12-20T04:20:15;14.37;;;6.10;;
3341;SDS011;1684;50.748;6.154;2023-12-20T04:22:43;19.53;;;8.43;;
3341;SDS011;1684;50.748;6.154;2023-12-20T04:25:13;17.20;;;7.33;;
3341;SDS011;1684;50.748;6.154;2023-12-20T04:27:41;16.50;;;6.33;;
3341;SDS011;1684;50.748;6.154;2023-12-20T04:30:10;14.87;;;6.27;;
3341;SDS011;1684;50.748;6.154;2023-12-20T04:32:39;16.10;;;6.53;;
3341;SDS011;1684;50.748;6.154;2023-12-20T04:35:07;24.30;;;8.53;;
3341;SDS011;1684;50.748;6.154;2023-12-20T04:37:35;12.10;;;6.93;;
3341;SDS011;1684;50.748;6.154;2023-12-20T04:40:04;21.73;;;5.80;;
3341;SDS011;1684;50.748;6.154;2023-12-20T04:42:36;9.50;;;5.77;;
3341;SDS011;1684;50.748;6.154;2023-12-20T04:45:05;11.43;;;5.53;;
3341;SDS011;1684;50.748;6.154;2023-12-20T04:47:33;11.80;;;4.80;;
3341;SDS011;1684;50.748;6.154;2023-12-20T04:50:01;21.13;;;5.90;;
3341;SDS011;1684;50.748;6.154;2023-12-20T04:52:30;13.93;;;5.20;;
3341;SDS011;1684;50.748;6.154;2023-12-20T04:54:58;13.50;;;6.93;;
3341;SDS011;1684;50.748;6.154;2023-12-20T04:57:27;12.63;;;4.83;;
3341;SDS011;1684;50.748;6.154;2023-12-20T04:59:57;15.83;;;5.90;;
3341;SDS011;1684;50.748;6.154;2023-12-20T05:02:25;17.03;;;7.10;;
3341;SDS011;1684;50.748;6.154;2023-12-20T05:04:53;17.13;;;5.40;;
3341;SDS011;1684;50.748;6.154;2023-12-20T05:07:21;15.33;;;6.33;;
3341;SDS011;1684;50.748;6.154;2023-12-20T05:09:50;19.67;;;6.77;;
3341;SDS011;1684;50.748;6.154;2023-12-20T05:12:18;20.40;;;7.03;;
3341;SDS011;1684;50.748;6.154;2023-12-20T05:14:47;17.77;;;6.50;;
3341;SDS011;1684;50.748;6.154;2023-12-20T05:17:17;21.30;;;6.97;;
3341;SDS011;1684;50.748;6.154;2023-12-20T05:19:46;15.90;;;7.27;;
3341;SDS011;1684;50.748;6.154;2023-12-20T05:22:15;19.90;;;6.67;;
3341;SDS011;1684;50.748;6.154;2023-12-20T05:24:45;14.20;;;6.07;;
3341;SDS011;1684;50.748;6.154;2023-12-20T05:27:13;11.43;;;6.37;;
3341;SDS011;1684;50.748;6.154;2023-12-20T05:29:42;22.33;;;5.40;;
3341;SDS011;1684;50.748;6.154;2023-12-20T05:32:10;17.53;;;8.17;;
3341;SDS011;1684;50.748;6.154;2023-12-20T05:34:40;13.00;;;5.70;;
3341;SDS011;1684;50.748;6.154;2023-12-20T05:37:08;11.53;;;5.33;;
3341;SDS011;1684;50.748;6.154;2023-12-20T05:39:36;30.13;;;7.77;;
3341;SDS011;1684;50.748;6.154;2023-12-20T05:42:05;17.63;;;6.20;;
3341;SDS011;1684;50.748;6.154;2023-12-20T05:44:33;14.83;;;5.73;;
3341;SDS011;1684;50.748;6.154;2023-12-20T05:47:02;16.03;;;7.17;;
3341;SDS011;1684;50.748;6.154;2023-12-20T05:49:31;19.03;;;7.27;;
3341;SDS011;1684;50.748;6.154;2023-12-20T05:52:00;18.77;;;7.20;;
3341;SDS011;1684;50.748;6.154;2023-12-20T05:54:29;15.80;;;6.63;;
3341;SDS011;1684;50.748;6.154;2023-12-20T05:56:57;17.77;;;7.80;;
3341;SDS011;1684;50.748;6.154;2023-12-20T05:59:26;22.73;;;9.07;;
3341;SDS011;1684;50.748;6.154;2023-12-20T06:01:54;13.47;;;5.80;;
3341;SDS011;1684;50.748;6.154;2023-12-20T06:04:23;11.03;;;6.70;;
3341;SDS011;1684;50.748;6.154;2023-12-20T06:06:51;12.93;;;6.40;;
3341;SDS011;1684;50.748;6.154;2023-12-20T06:09:22;10.70;;;6.20;;
3341;SDS011;1684;50.748;6.154;2023-12-20T06:11:50;22.53;;;6.30;;
3341;SDS011;1684;50.748;6.154;2023-12-20T06:14:18;12.47;;;5.63;;
3341;SDS011;1684;50.748;6.154;2023-12-20T06:16:47;15.87;;;6.67;;
3341;SDS011;1684;50.748;6.154;2023-12-20T06:19:15;13.70;;;6.17;;
3341;SDS011;1684;50.748;6.154;2023-12-20T06:21:44;13.90;;;7.40;;
3341;SDS011;1684;50.748;6.154;2023-12-20T06:24:12;20.17;;;8.07;;
3341;SDS011;1684;50.748;6.154;2023-12-20T06:26:41;13.97;;;5.83;;
3341;SDS011;1684;50.748;6.154;2023-12-20T06:29:10;14.23;;;6.50;;
3341;SDS011;1684;50.748;6.154;2023-12-20T06:31:38;19.83;;;7.13;;
3341;SDS011;1684;50.748;6.154;2023-12-20T06:34:06;14.63;;;5.93;;
3341;SDS011;1684;50.748;6.154;2023-12-20T06:36:35;14.30;;;6.33;;
3341;SDS011;1684;50.748;6.154;2023-12-20T06:39:03;16.13;;;6.37;;
3341;SDS011;1684;50.748;6.154;2023-12-20T06:41:31;11.53;;;5.13;;
3341;SDS011;1684;50.748;6.154;2023-12-20T06:44:01;13.97;;;6.97;;
3341;SDS011;1684;50.748;6.154;2023-12-20T06:46:29;21.77;;;7.60;;
3341;SDS011;1684;50.748;6.154;2023-12-20T06:48:58;20.33;;;6.37;;
3341;SDS011;1684;50.748;6.154;2023-12-20T06:51:26;12.83;;;6.87;;
3341;SDS011;1684;50.748;6.154;2023-12-20T06:53:54;17.30;;;7.03;;
3341;SDS011;1684;50.748;6.154;2023-12-20T06:56:23;23.23;;;8.23;;
3341;SDS011;1684;50.748;6.154;2023-12-20T06:58:51;21.43;;;8.70;;
3341;SDS011;1684;50.748;6.154;2023-12-20T07:01:20;22.27;;;9.27;;
3341;SDS011;1684;50.748;6.154;2023-12-20T07:03:49;15.43;;;8.07;;
3341;SDS011;1684;50.748;6.154;2023-12-20T07:06:17;12.70;;;7.40;;
3341;SDS011;1684;50.748;6.154;2023-12-20T07:08:47;21.70;;;7.73;;
3341;SDS011;1684;50.748;6.154;2023-12-20T07:11:16;22.50;;;8.77;;
3341;SDS011;1684;50.748;6.154;2023-12-20T07:13:44;17.73;;;7.10;;
3341;SDS011;1684;50.748;6.154;2023-12-20T07:16:12;19.30;;;9.00;;
3341;SDS011;1684;50.748;6.154;2023-12-20T07:18:42;22.33;;;9.23;;
3341;SDS011;1684;50.748;6.154;2023-12-20T07:21:10;17.30;;;6.57;;
3341;SDS011;1684;50.748;6.154;2023-12-20T07:23:38;15.23;;;6.83;;
3341;SDS011;1684;50.748;6.154;2023-12-20T07:26:06;20.13;;;8.27;;
3341;SDS011;1684;50.748;6.154;2023-12-20T07:28:34;17.13;;;8.00;;
3341;SDS011;1684;50.748;6.154;2023-12-20T07:31:03;11.93;;;6.80;;
3341;SDS011;1684;50.748;6.154;2023-12-20T07:33:31;14.07;;;8.73;;
3341;SDS011;1684;50.748;6.154;2023-12-20T07:36:07;24.20;;;9.40;;
3341;SDS011;1684;50.748;6.154;2023-12-20T07:38:37;17.37;;;7.07;;
3341;SDS011;1684;50.748;6.154;2023-12-20T07:41:05;25.17;;;9.53;;
3341;SDS011;1684;50.748;6.154;2023-12-20T07:43:33;18.10;;;7.70;;
3341;SDS011;1684;50.748;6.154;2023-12-20T07:46:05;20.63;;;9.53;;
3341;SDS011;1684;50.748;6.154;2023-12-20T07:48:34;27.53;;;9.03;;
3341;SDS011;1684;50.748;6.154;2023-12-20T07:51:02;33.53;;;9.00;;
3341;SDS011;1684;50.748;6.154;2023-12-20T07:53:33;25.70;;;9.37;;
3341;SDS011;1684;50.748;6.154;2023-12-20T07:56:02;28.07;;;9.20;;
3341;SDS011;1684;50.748;6.154;2023-12-20T07:58:30;20.70;;;7.90;;
3341;SDS011;1684;50.748;6.154;2023-12-20T08:01:16;14.43;;;7.20;;
3341;SDS011;1684;50.748;6.154;2023-12-20T08:03:46;14.13;;;7.40;;
3341;SDS011;1684;50.748;6.154;2023-12-20T08:06:15;19.80;;;6.80;;
3341;SDS011;1684;50.748;6.154;2023-12-20T08:08:46;17.17;;;6.83;;
3341;SDS011;1684;50.748;6.154;2023-12-20T08:11:26;13.30;;;6.40;;
3341;SDS011;1684;50.748;6.154;2023-12-20T08:13:54;15.27;;;7.57;;
3341;SDS011;1684;50.748;6.154;2023-12-20T08:16:23;17.60;;;7.87;;
3341;SDS011;1684;50.748;6.154;2023-12-20T08:18:51;20.67;;;8.80;;
3341;SDS011;1684;50.748;6.154;2023-12-20T08:21:19;25.83;;;7.27;;
3341;SDS011;1684;50.748;6.154;2023-12-20T08:23:50;15.37;;;9.03;;
3341;SDS011;1684;50.748;6.154;2023-12-20T08:26:18;18.07;;;8.03;;
3341;SDS011;1684;50.748;6.154;2023-12-20T08:28:48;12.27;;;7.40;;
3341;SDS011;1684;50.748;6.154;2023-12-20T08:31:16;15.30;;;7.10;;
3341;SDS011;1684;50.748;6.154;2023-12-20T08:33:45;19.57;;;7.00;;
3341;SDS011;1684;50.748;6.154;2023-12-20T08:36:14;11.30;;;5.43;;
3341;SDS011;1684;50.748;6.154;2023-12-20T08:38:44;19.50;;;6.53;;
3341;SDS011;1684;50.748;6.154;2023-12-20T08:41:13;14.80;;;6.07;;
3341;SDS011;1684;50.748;6.154;2023-12-20T08:43:42;21.80;;;6.50;;
3341;SDS011;1684;50.748;6.154;2023-12-20T08:46:10;21.43;;;6.93;;
3341;SDS011;1684;50.748;6.154;2023-12-20T08:48:38;10.63;;;5.83;;
3341;SDS011;1684;50.748;6.154;2023-12-20T08:51:07;12.20;;;5.23;;
3341;SDS011;1684;50.748;6.154;2023-12-20T08:53:36;18.20;;;6.70;;
3341;SDS011;1684;50.748;6.154;2023-12-20T08:56:04;12.77;;;5.77;;
3341;SDS011;1684;50.748;6.154;2023-12-20T08:58:34;12.43;;;4.90;;
3341;SDS011;1684;50.748;6.154;2023-12-20T09:01:03;19.53;;;7.00;;
3341;SDS011;1684;50.748;6.154;2023-12-20T09:03:31;14.03;;;6.70;;
3341;SDS011;1684;50.748;6.154;2023-12-20T09:05:59;20.13;;;6.77;;
3341;SDS011;1684;50.748;6.154;2023-12-20T09:08:28;20.63;;;6.53;;
3341;SDS011;1684;50.748;6.154;2023-12-20T09:10:56;15.07;;;6.33;;
3341;SDS011;1684;50.748;6.154;2023-12-20T09:13:25;16.23;;;4.87;;
3341;SDS011;1684;50.748;6.154;2023-12-20T09:15:56;18.93;;;7.33;;
3341;SDS011;1684;50.748;6.154;2023-12-20T09:18:33;14.90;;;6.83;;
3341;SDS011;1684;50.748;6.154;2023-12-20T09:21:04;16.13;;;5.80;;
3341;SDS011;1684;50.748;6.154;2023-12-20T09:23:32;12.27;;;4.80;;
3341;SDS011;1684;50.748;6.154;2023-12-20T09:26:01;23.60;;;7.33;;
3341;SDS011;1684;50.748;6.154;2023-12-20T09:28:29;15.53;;;4.90;;
3341;SDS011;1684;50.748;6.154;2023-12-20T09:31:04;12.83;;;5.30;;
3341;SDS011;1684;50.748;6.154;2023-12-20T09:33:32;11.77;;;5.67;;
3341;SDS011;1684;50.748;6.154;2023-12-20T09:36:01;11.73;;;6.00;;
3341;SDS011;1684;50.748;6.154;2023-12-20T09:38:29;27.20;;;5.73;;
3341;SDS011;1684;50.748;6.154;2023-12-20T09:40:58;17.80;;;5.70;;
3341;SDS011;1684;50.748;6.154;2023-12-20T09:43:27;13.67;;;7.50;;
3341;SDS011;1684;50.748;6.154;2023-12-20T09:45:57;19.37;;;6.80;;
3341;SDS011;1684;50.748;6.154;2023-12-20T09:48:30;23.60;;;6.17;;
3341;SDS011;1684;50.748;6.154;2023-12-20T09:50:59;16.33;;;5.93;;
3341;SDS011;1684;50.748;6.154;2023-12-20T09:53:27;29.00;;;6.83;;
3341;SDS011;1684;50.748;6.154;2023-12-20T09:55:57;22.93;;;7.80;;
3341;SDS011;1684;50.748;6.154;2023-12-20T09:58:27;12.87;;;6.47;;
3341;SDS011;1684;50.748;6.154;2023-12-20T10:00:55;13.67;;;6.00;;
3341;SDS011;1684;50.748;6.154;2023-12-20T10:03:24;15.50;;;5.67;;
3341;SDS011;1684;50.748;6.154;2023-12-20T10:05:56;18.70;;;6.63;;
3341;SDS011;1684;50.748;6.154;2023-12-20T10:08:25;16.30;;;6.07;;
3341;SDS011;1684;50.748;6.154;2023-12-20T10:10:54;18.27;;;5.90;;
3341;SDS011;1684;50.748;6.154;2023-12-20T10:13:24;9.53;;;5.40;;
3341;SDS011;1684;50.748;6.154;2023-12-20T10:15:52;19.60;;;6.07;;
3341;SDS011;1684;50.748;6.154;2023-12-20T10:18:23;13.60;;;6.10;;
3341;SDS011;1684;50.748;6.154;2023-12-20T10:21:05;10.97;;;5.70;;
3341;SDS011;1684;50.748;6.154;2023-12-20T10:23:36;15.13;;;6.57;;
3341;SDS011;1684;50.748;6.154;2023-12-20T10:26:06;21.60;;;5.17;;
3341;SDS011;1684;50.748;6.154;2023-12-20T10:28:34;14.33;;;6.77;;
3341;SDS011;1684;50.748;6.154;2023-12-20T10:31:03;16.67;;;6.43;;
3341;SDS011;1684;50.748;6.154;2023-12-20T10:33:32;11.83;;;5.00;;
3341;SDS011;1684;50.748;6.154;2023-12-20T10:36:01;17.53;;;5.30;;
3341;SDS011;1684;50.748;6.154;2023-12-20T10:38:31;18.37;;;6.70;;
3341;SDS011;1684;50.748;6.154;2023-12-20T10:40:59;15.87;;;7.00;;
3341;SDS011;1684;50.748;6.154;2023-12-20T10:43:28;18.57;;;7.07;;
3341;SDS011;1684;50.748;6.154;2023-12-20T10:45:57;10.77;;;6.10;;
3341;SDS011;1684;50.748;6.154;2023-12-20T10:48:27;20.37;;;6.67;;
3341;SDS011;1684;50.748;6.154;2023-12-20T10:50:57;15.27;;;6.27;;
3341;SDS011;1684;50.748;6.154;2023-12-20T10:53:25;11.00;;;5.37;;
3341;SDS011;1684;50.748;6.154;2023-12-20T10:55:56;12.07;;;5.60;;
3341;SDS011;1684;50.748;6.154;2023-12-20T10:58:24;26.40;;;6.37;;
3341;SDS011;1684;50.748;6.154;2023-12-20T11:00:53;12.43;;;5.87;;
3341;SDS011;1684;50.748;6.154;2023-12-20T11:03:22;12.80;;;4.90;;
3341;SDS011;1684;50.748;6.154;2023-12-20T11:05:53;15.43;;;5.70;;
3341;SDS011;1684;50.748;6.154;2023-12-20T11:08:25;14.37;;;5.33;;
3341;SDS011;1684;50.748;6.154;2023-12-20T11:11:01;19.30;;;7.93;;
3341;SDS011;1684;50.748;6.154;2023-12-20T11:13:31;20.60;;;7.07;;
3341;SDS011;1684;50.748;6.154;2023-12-20T11:16:02;14.00;;;5.50;;
3341;SDS011;1684;50.748;6.154;2023-12-20T11:18:30;15.90;;;6.00;;
3341;SDS011;1684;50.748;6.154;2023-12-20T11:21:00;13.10;;;5.80;;
3341;SDS011;1684;50.748;6.154;2023-12-20T11:23:29;19.17;;;4.93;;
3341;SDS011;1684;50.748;6.154;2023-12-20T11:26:01;16.33;;;5.27;;
3341;SDS011;1684;50.748;6.154;2023-12-20T11:28:29;10.50;;;5.17;;
3341;SDS011;1684;50.748;6.154;2023-12-20T11:30:58;9.87;;;4.47;;
3341;SDS011;1684;50.748;6.154;2023-12-20T11:33:29;11.40;;;5.47;;
3341;SDS011;1684;50.748;6.154;2023-12-20T11:35:58;13.50;;;4.47;;
3341;SDS011;1684;50.748;6.154;2023-12-20T11:38:27;11.83;;;5.43;;
3341;SDS011;1684;50.748;6.154;2023-12-20T11:40:55;11.40;;;4.83;;
3341;SDS011;1684;50.748;6.154;2023-12-20T11:43:31;13.63;;;6.00;;
3341;SDS011;1684;50.748;6.154;2023-12-20T11:46:02;16.50;;;6.30;;
3341;SDS011;1684;50.748;6.154;2023-12-20T11:48:31;9.30;;;5.63;;
3341;SDS011;1684;50.748;6.154;2023-12-20T11:50:59;16.87;;;5.10;;
3341;SDS011;1684;50.748;6.154;2023-12-20T11:53:30;12.77;;;5.53;;
3341;SDS011;1684;50.748;6.154;2023-12-20T11:56:00;12.50;;;5.40;;
3341;SDS011;1684;50.748;6.154;2023-12-20T11:58:31;8.97;;;4.93;;
3341;SDS011;1684;50.748;6.154;2023-12-20T12:01:00;16.43;;;6.07;;
3341;SDS011;1684;50.748;6.154;2023-12-20T12:03:28;11.30;;;5.20;;
3341;SDS011;1684;50.748;6.154;2023-12-20T12:05:57;15.63;;;5.23;;
3341;SDS011;1684;50.748;6.154;2023-12-20T12:08:27;18.77;;;5.33;;
3341;SDS011;1684;50.748;6.154;2023-12-20T12:10:55;9.20;;;5.60;;
3341;SDS011;1684;50.748;6.154;2023-12-20T12:13:23;9.80;;;4.60;;
3341;SDS011;1684;50.748;6.154;2023-12-20T12:15:54;8.80;;;4.77;;
3341;SDS011;1684;50.748;6.154;2023-12-20T12:18:23;11.93;;;5.10;;
3341;SDS011;1684;50.748;6.154;2023-12-20T12:20:59;23.50;;;5.90;;
3341;SDS011;1684;50.748;6.154;2023-12-20T12:23:31;9.07;;;4.20;;
3341;SDS011;1684;50.748;6.154;2023-12-20T12:25:59;20.13;;;6.30;;
3341;SDS011;1684;50.748;6.154;2023-12-20T12:28:28;16.60;;;4.67;;
3341;SDS011;1684;50.748;6.154;2023-12-20T12:30:59;12.60;;;5.70;;
3341;SDS011;1684;50.748;6.154;2023-12-20T12:33:28;13.70;;;5.57;;
3341;SDS011;1684;50.748;6.154;2023-12-20T12:35:58;14.53;;;5.10;;
3341;SDS011;1684;50.748;6.154;2023-12-20T12:38:27;21.83;;;5.40;;
3341;SDS011;1684;50.748;6.154;2023-12-20T12:40:55;12.93;;;4.10;;
3341;SDS011;1684;50.748;6.154;2023-12-20T12:43:25;19.20;;;5.30;;
3341;SDS011;1684;50.748;6.154;2023-12-20T12:45:53;17.30;;;5.00;;
3341;SDS011;1684;50.748;6.154;2023-12-20T12:48:23;10.30;;;3.80;;
3341;SDS011;1684;50.748;6.154;2023-12-20T12:50:52;12.17;;;4.70;;
3341;SDS011;1684;50.748;6.154;2023-12-20T12:53:20;19.37;;;5.13;;
3341;SDS011;1684;50.748;6.154;2023-12-20T12:55:49;13.83;;;5.33;;
3341;SDS011;1684;50.748;6.154;2023-12-20T12:58:17;15.47;;;5.53;;
3341;SDS011;1684;50.748;6.154;2023-12-20T13:00:46;19.30;;;4.97;;
3341;SDS011;1684;50.748;6.154;2023-12-20T13:03:15;11.53;;;5.13;;
3341;SDS011;1684;50.748;6.154;2023-12-20T13:05:44;10.73;;;4.13;;
3341;SDS011;1684;50.748;6.154;2023-12-20T13:08:14;12.37;;;5.10;;
3341;SDS011;1684;50.748;6.154;2023-12-20T13:10:42;11.63;;;5.80;;
3341;SDS011;1684;50.748;6.154;2023-12-20T13:13:10;26.37;;;6.30;;
3341;SDS011;1684;50.748;6.154;2023-12-20T13:15:39;11.03;;;4.70;;
3341;SDS011;1684;50.748;6.154;2023-12-20T13:18:07;11.73;;;4.30;;
3341;SDS011;1684;50.748;6.154;2023-12-20T13:20:36;11.90;;;5.33;;
3341;SDS011;1684;50.748;6.154;2023-12-20T13:23:07;14.60;;;5.23;;
3341;SDS011;1684;50.748;6.154;2023-12-20T13:25:35;13.53;;;5.73;;
3341;SDS011;1684;50.748;6.154;2023-12-20T13:28:04;12.80;;;5.27;;
3341;SDS011;1684;50.748;6.154;2023-12-20T13:30:32;13.57;;;4.70;;
3341;SDS011;1684;50.748;6.154;2023-12-20T13:33:02;11.77;;;5.93;;
3341;SDS011;1684;50.748;6.154;2023-12-20T13:35:31;13.73;;;5.00;;
3341;SDS011;1684;50.748;6.154;2023-12-20T13:38:00;17.80;;;4.80;;
3341;SDS011;1684;50.748;6.154;2023-12-20T13:40:30;11.30;;;5.50;;
3341;SDS011;1684;50.748;6.154;2023-12-20T13:42:58;11.80;;;4.73;;
3341;SDS011;1684;50.748;6.154;2023-12-20T13:45:29;21.50;;;5.57;;
3341;SDS011;1684;50.748;6.154;2023-12-20T13:47:58;11.30;;;4.70;;
3341;SDS011;1684;50.748;6.154;2023-12-20T13:50:26;11.93;;;5.33;;
3341;SDS011;1684;50.748;6.154;2023-12-20T13:52:56;12.47;;;5.20;;
3341;SDS011;1684;50.748;6.154;2023-12-20T13:55:25;18.93;;;7.00;;
3341;SDS011;1684;50.748;6.154;2023-12-20T13:57:55;12.47;;;6.13;;
3341;SDS011;1684;50.748;6.154;2023-12-20T14:00:24;16.13;;;5.93;;
3341;SDS011;1684;50.748;6.154;2023-12-20T14:02:54;12.00;;;5.87;;
3341;SDS011;1684;50.748;6.154;2023-12-20T14:05:23;16.80;;;6.07;;
3341;SDS011;1684;50.748;6.154;2023-12-20T14:07:54;13.73;;;6.20;;
3341;SDS011;1684;50.748;6.154;2023-12-20T14:10:24;19.63;;;7.50;;
3341;SDS011;1684;50.748;6.154;2023-12-20T14:12:54;28.07;;;7.63;;
3341;SDS011;1684;50.748;6.154;2023-12-20T14:15:23;15.60;;;5.50;;
3341;SDS011;1684;50.748;6.154;2023-12-20T14:17:52;13.27;;;5.70;;
3341;SDS011;1684;50.748;6.154;2023-12-20T14:20:21;18.33;;;6.60;;
3341;SDS011;1684;50.748;6.154;2023-12-20T14:22:49;15.43;;;5.40;;
3341;SDS011;1684;50.748;6.154;2023-12-20T14:25:18;24.70;;;5.40;;
3341;SDS011;1684;50.748;6.154;2023-12-20T14:27:47;12.30;;;5.67;;
3341;SDS011;1684;50.748;6.154;2023-12-20T14:30:17;13.40;;;6.60;;
3341;SDS011;1684;50.748;6.154;2023-12-20T14:32:46;16.47;;;5.00;;
3341;SDS011;1684;50.748;6.154;2023-12-20T14:35:15;12.53;;;5.70;;
3341;SDS011;1684;50.748;6.154;2023-12-20T14:37:43;11.50;;;5.77;;
3341;SDS011;1684;50.748;6.154;2023-12-20T14:40:12;22.07;;;7.90;;
3341;SDS011;1684;50.748;6.154;2023-12-20T14:42:43;16.23;;;6.90;;
3341;SDS011;1684;50.748;6.154;2023-12-20T14:45:12;14.87;;;5.87;;
3341;SDS011;1684;50.748;6.154;2023-12-20T14:47:43;20.27;;;5.47;;
3341;SDS011;1684;50.748;6.154;2023-12-20T14:50:13;16.10;;;6.33;;
3341;SDS011;1684;50.748;6.154;2023-12-20T14:52:45;14.80;;;6.83;;
3341;SDS011;1684;50.748;6.154;2023-12-20T14:55:13;21.07;;;7.17;;
3341;SDS011;1684;50.748;6.154;2023-12-20T14:57:43;16.90;;;6.30;;
3341;SDS011;1684;50.748;6.154;2023-12-20T15:00:12;16.13;;;5.83;;
3341;SDS011;1684;50.748;6.154;2023-12-20T15:02:44;12.63;;;6.37;;
3341;SDS011;1684;50.748;6.154;2023-12-20T15:05:12;13.60;;;7.37;;
3341;SDS011;1684;50.748;6.154;2023-12-20T15:07:41;14.13;;;7.70;;
3341;SDS011;1684;50.748;6.154;2023-12-20T15:10:10;14.27;;;7.10;;
3341;SDS011;1684;50.748;6.154;2023-12-20T15:12:39;16.27;;;6.00;;
3341;SDS011;1684;50.748;6.154;2023-12-20T15:15:08;12.00;;;5.40;;